Terminal Aerodrome Forecast
Issued by NWS North Platte, NE

Home | Current Version | Previous Version | Graphics & Text | Print | Product List | Glossary On
Versions: 1 2 3 4 5 6 7 8 9 10 11 12 13 14
000
FTUS43 KLBF 190500
TAFVTN
TAF
KVTN 190523Z 1906/2006 31015G23KT P6SM BKN035
     FM191000 32014G21KT P6SM SCT018 OVC025
     FM191700 32011KT P6SM BKN025
     FM192000 31012KT P6SM SCT030
     FM200000 32004KT P6SM FEW030=

USA.gov is the U.S. government's official web portal to all federal, state and local government web resources and services.